createdAt,value
2023-06-11T00:01:10.903Z,27.00
2023-06-11T00:03:43.294Z,13.15
2023-06-11T00:06:13.433Z,9.90
2023-06-11T00:08:43.497Z,9.43
2023-06-11T00:11:13.930Z,6.80
2023-06-11T00:13:43.876Z,8.15
2023-06-11T00:16:15.183Z,9.65
2023-06-11T00:18:47.410Z,6.85
2023-06-11T00:21:18.198Z,8.50
2023-06-11T00:23:48.231Z,7.88
2023-06-11T00:26:19.049Z,8.77
2023-06-11T00:28:48.976Z,7.22
2023-06-11T00:31:19.423Z,6.47
2023-06-11T00:33:50.301Z,6.20
2023-06-11T00:36:23.361Z,6.97
2023-06-11T00:38:54.015Z,6.53
2023-06-11T00:41:26.958Z,6.05
2023-06-11T00:43:58.350Z,5.10
2023-06-11T00:46:29.009Z,5.38
2023-06-11T00:49:00.794Z,5.82
2023-06-11T00:51:31.257Z,6.20
2023-06-11T00:54:02.399Z,6.47
2023-06-11T00:56:33.455Z,6.57
2023-06-11T00:59:04.501Z,7.25
2023-06-11T01:01:38.046Z,7.15
2023-06-11T01:04:10.334Z,7.20
2023-06-11T01:06:40.820Z,7.53
2023-06-11T01:09:11.715Z,8.10
2023-06-11T01:11:42.016Z,11.15
2023-06-11T01:14:15.530Z,9.25
2023-06-11T01:16:55.015Z,6.20
2023-06-11T01:19:26.316Z,6.15
2023-06-11T01:22:01.596Z,5.97
2023-06-11T01:24:36.253Z,7.25
2023-06-11T01:27:07.365Z,23.42
2023-06-11T01:29:41.311Z,10.73
2023-06-11T01:32:11.925Z,7.10
2023-06-11T01:34:45.556Z,6.05
2023-06-11T01:37:21.380Z,7.00
2023-06-11T01:39:54.371Z,7.88
2023-06-11T01:42:37.144Z,7.50
2023-06-11T01:45:09.592Z,7.88
2023-06-11T01:47:40.420Z,7.00
2023-06-11T01:50:11.948Z,7.22
2023-06-11T01:52:42.888Z,6.72
2023-06-11T01:55:13.992Z,6.03
2023-06-11T01:57:45.852Z,6.03
2023-06-11T02:00:19.831Z,6.53
2023-06-11T02:02:51.439Z,7.07
2023-06-11T02:05:22.833Z,7.13
2023-06-11T02:07:53.393Z,6.82
2023-06-11T02:10:24.990Z,7.10
2023-06-11T02:12:55.396Z,5.88
2023-06-11T02:15:26.430Z,5.82
2023-06-11T02:17:57.009Z,7.20
2023-06-11T02:20:27.534Z,6.15
2023-06-11T02:22:57.712Z,6.50
2023-06-11T02:25:28.336Z,6.72
2023-06-11T02:27:58.942Z,6.32
2023-06-11T02:30:32.373Z,5.88
2023-06-11T02:33:03.230Z,4.85
2023-06-11T02:35:34.916Z,5.10
2023-06-11T02:38:05.383Z,4.60
2023-06-11T02:40:35.992Z,6.00
2023-06-11T02:43:06.241Z,5.72
2023-06-11T02:45:38.357Z,7.40
2023-06-11T02:48:08.396Z,5.70
2023-06-11T02:50:39.019Z,6.10
2023-06-11T02:53:09.855Z,6.57
2023-06-11T02:55:40.618Z,7.82
2023-06-11T02:58:10.759Z,6.07
2023-06-11T03:00:40.946Z,6.75
2023-06-11T03:03:11.344Z,5.43
2023-06-11T03:05:45.505Z,7.63
2023-06-11T03:08:15.886Z,7.68
2023-06-11T03:10:45.846Z,6.97
2023-06-11T03:13:16.612Z,8.13
2023-06-11T03:15:49.878Z,6.13
2023-06-11T03:18:20.111Z,6.82
2023-06-11T03:20:50.825Z,6.60
2023-06-11T03:23:20.813Z,5.90
2023-06-11T03:25:51.047Z,5.03
2023-06-11T03:28:21.514Z,7.50
2023-06-11T03:30:52.039Z,5.85
2023-06-11T03:33:22.486Z,4.75
2023-06-11T03:35:55.615Z,5.53
2023-06-11T03:38:28.518Z,5.45
2023-06-11T03:40:59.456Z,6.60
2023-06-11T03:43:33.142Z,6.53
2023-06-11T03:46:06.934Z,4.93
2023-06-11T03:48:37.790Z,5.15
2023-06-11T03:51:08.460Z,5.68
2023-06-11T03:53:39.374Z,5.18
2023-06-11T03:56:09.903Z,5.38
2023-06-11T03:58:41.472Z,5.72
2023-06-11T04:01:12.041Z,4.70
2023-06-11T04:03:42.644Z,5.75
2023-06-11T04:06:13.158Z,6.90
2023-06-11T04:08:43.634Z,6.47
2023-06-11T04:11:14.851Z,5.30
2023-06-11T04:13:51.515Z,5.88
2023-06-11T04:16:22.035Z,5.68
2023-06-11T04:18:52.709Z,5.55
2023-06-11T04:21:23.948Z,7.53
2023-06-11T04:23:54.600Z,6.95
2023-06-11T04:26:27.132Z,6.93
2023-06-11T04:28:58.956Z,7.05
2023-06-11T04:31:30.149Z,5.45
2023-06-11T04:34:05.270Z,4.32
2023-06-11T04:36:40.731Z,4.95
2023-06-11T04:39:12.489Z,7.25
2023-06-11T04:41:44.489Z,8.60
2023-06-11T04:44:15.566Z,9.13
2023-06-11T04:46:48.502Z,11.38
2023-06-11T04:49:24.328Z,13.43
2023-06-11T04:51:56.582Z,14.98
2023-06-11T04:54:29.611Z,12.00
2023-06-11T04:57:04.635Z,12.73
2023-06-11T04:59:35.601Z,13.63
2023-06-11T05:02:06.871Z,14.45
2023-06-11T05:04:37.228Z,13.77
2023-06-11T05:07:07.985Z,28.55
2023-06-11T05:09:43.705Z,42.60
2023-06-11T05:12:16.563Z,12.30
2023-06-11T05:14:47.460Z,21.23
2023-06-11T05:17:21.106Z,28.25
2023-06-11T05:19:56.174Z,35.92
2023-06-11T05:22:26.158Z,18.88
2023-06-11T05:24:59.727Z,19.40
2023-06-11T05:27:31.598Z,9.52
2023-06-11T05:30:05.561Z,7.03
2023-06-11T05:32:39.113Z,6.82
2023-06-11T05:35:10.974Z,9.57
2023-06-11T05:38:00.279Z,7.97
2023-06-11T05:40:30.671Z,7.32
2023-06-11T05:43:02.575Z,7.68
2023-06-11T05:45:34.092Z,11.10
2023-06-11T05:48:08.077Z,13.05
2023-06-11T05:50:42.303Z,14.93
2023-06-11T05:53:13.503Z,13.95
2023-06-11T05:55:45.156Z,10.30
2023-06-11T05:58:17.173Z,5.95
2023-06-11T06:00:47.776Z,6.50
2023-06-11T06:03:18.372Z,7.60
2023-06-11T06:05:49.506Z,15.75
2023-06-11T06:08:20.130Z,7.40
2023-06-11T06:10:50.660Z,7.78
2023-06-11T06:13:22.614Z,6.82
2023-06-11T06:15:53.214Z,5.35
2023-06-11T06:18:27.313Z,6.00
2023-06-11T06:20:59.607Z,6.68
2023-06-11T06:23:30.515Z,6.60
2023-06-11T06:26:08.321Z,6.13
2023-06-11T06:28:39.430Z,6.85
2023-06-11T06:31:14.703Z,7.68
2023-06-11T06:33:50.424Z,8.27
2023-06-11T06:36:22.699Z,6.43
2023-06-11T06:38:55.222Z,5.53
2023-06-11T06:41:25.662Z,6.18
2023-06-11T06:43:57.739Z,5.43
2023-06-11T06:46:33.114Z,5.82
2023-06-11T06:49:03.704Z,6.47
2023-06-11T06:51:35.155Z,6.45
2023-06-11T06:54:06.166Z,6.20
2023-06-11T06:56:38.216Z,7.28
2023-06-11T06:59:09.186Z,6.13
2023-06-11T07:01:42.856Z,9.88
2023-06-11T07:04:13.751Z,5.82
2023-06-11T07:06:44.713Z,5.60
2023-06-11T07:09:15.436Z,6.10
2023-06-11T07:11:50.797Z,6.22
2023-06-11T07:14:22.446Z,5.88
2023-06-11T07:16:53.209Z,7.78
2023-06-11T07:19:24.287Z,6.88
2023-06-11T07:21:55.273Z,7.00
2023-06-11T07:24:26.517Z,6.38
2023-06-11T07:26:57.638Z,6.38
2023-06-11T07:29:28.553Z,5.63
2023-06-11T07:31:59.544Z,4.70
2023-06-11T07:34:31.289Z,4.32
2023-06-11T07:37:03.418Z,4.07
2023-06-11T07:39:34.307Z,4.70
2023-06-11T07:42:07.338Z,4.88
2023-06-11T07:44:37.914Z,4.82
2023-06-11T07:47:08.987Z,4.95
2023-06-11T07:49:39.668Z,4.93
2023-06-11T07:52:10.268Z,6.13
2023-06-11T07:54:44.780Z,5.18
2023-06-11T07:57:15.587Z,4.18
2023-06-11T07:59:46.736Z,4.22
2023-06-11T08:02:17.408Z,3.90
2023-06-11T08:04:51.463Z,4.28
2023-06-11T08:07:24.529Z,4.95
2023-06-11T08:09:55.325Z,4.72
2023-06-11T08:12:25.932Z,5.38
2023-06-11T08:14:56.986Z,4.68
2023-06-11T08:17:27.306Z,4.72
2023-06-11T08:19:57.837Z,14.63
2023-06-11T08:22:28.267Z,5.00
2023-06-11T08:24:58.689Z,5.32
2023-06-11T08:27:29.267Z,4.43
2023-06-11T08:30:00.173Z,4.32
2023-06-11T08:32:31.214Z,4.63
2023-06-11T08:35:01.801Z,5.82
2023-06-11T08:37:32.688Z,5.47
2023-06-11T08:40:03.341Z,5.63
2023-06-11T08:42:33.802Z,6.07
2023-06-11T08:45:04.306Z,4.38
2023-06-11T08:47:36.453Z,5.53
2023-06-11T08:50:07.757Z,5.18
2023-06-11T08:52:40.206Z,6.18
2023-06-11T08:55:11.706Z,6.30
2023-06-11T08:57:42.698Z,6.70
2023-06-11T09:00:14.968Z,5.95
2023-06-11T09:02:45.574Z,9.00
2023-06-11T09:05:19.501Z,6.55
2023-06-11T09:07:51.309Z,5.82
2023-06-11T09:10:22.848Z,7.53
2023-06-11T09:12:55.324Z,7.53
2023-06-11T09:15:28.165Z,8.45
2023-06-11T09:17:59.383Z,8.75
2023-06-11T09:20:33.300Z,7.72
2023-06-11T09:23:03.856Z,7.72
2023-06-11T09:25:34.719Z,7.88
2023-06-11T09:28:08.689Z,7.68
2023-06-11T09:30:39.331Z,7.28
2023-06-11T09:33:17.334Z,8.53
2023-06-11T09:35:48.378Z,11.20
2023-06-11T09:38:19.339Z,6.82
2023-06-11T09:40:54.014Z,6.60
2023-06-11T09:43:26.117Z,10.57
2023-06-11T09:45:57.794Z,10.50
2023-06-11T09:48:28.255Z,8.48
2023-06-11T09:51:04.237Z,6.88
2023-06-11T09:53:36.532Z,6.43
2023-06-11T09:56:11.577Z,5.85
2023-06-11T09:58:43.281Z,13.10
2023-06-11T10:01:14.291Z,6.03
2023-06-11T10:03:45.405Z,4.82
2023-06-11T10:06:19.112Z,6.18
2023-06-11T10:08:51.201Z,6.22
2023-06-11T10:11:25.878Z,7.03
2023-06-11T10:14:03.026Z,7.82
2023-06-11T10:16:34.884Z,16.88
2023-06-11T10:19:07.520Z,16.65
2023-06-11T10:21:46.750Z,5.20
2023-06-11T10:24:28.152Z,5.85
2023-06-11T10:27:09.911Z,6.88
2023-06-11T10:29:44.396Z,7.85
2023-06-11T10:32:19.107Z,8.68
2023-06-11T10:35:07.217Z,8.77
2023-06-11T10:37:43.700Z,9.02
2023-06-11T10:40:20.710Z,8.25
2023-06-11T10:42:54.815Z,5.38
2023-06-11T10:45:35.010Z,6.78
2023-06-11T10:48:05.962Z,6.28
2023-06-11T10:50:37.995Z,6.85
2023-06-11T10:53:15.782Z,8.18
2023-06-11T10:55:49.569Z,9.32
2023-06-11T10:58:25.452Z,9.73
2023-06-11T11:00:56.035Z,11.07
2023-06-11T11:03:28.702Z,11.82
2023-06-11T11:05:59.991Z,11.20
2023-06-11T11:08:31.493Z,11.57
2023-06-11T11:11:02.620Z,12.00
2023-06-11T11:13:33.417Z,11.45
2023-06-11T11:16:05.112Z,10.52
2023-06-11T11:18:35.875Z,12.52
2023-06-11T11:21:06.499Z,10.60
2023-06-11T11:23:37.864Z,9.77
2023-06-11T11:26:08.342Z,9.40
2023-06-11T11:28:39.143Z,9.05
2023-06-11T11:31:10.406Z,9.30
2023-06-11T11:33:42.337Z,9.02
2023-06-11T11:36:13.982Z,8.82
2023-06-11T11:38:44.533Z,8.27
2023-06-11T11:41:15.155Z,9.93
2023-06-11T11:43:47.378Z,9.40
2023-06-11T11:46:26.407Z,9.85
2023-06-11T11:49:00.960Z,12.07
2023-06-11T11:51:34.093Z,11.40
2023-06-11T11:54:05.085Z,9.20
2023-06-11T11:56:36.084Z,10.10
2023-06-11T11:59:06.455Z,10.75
2023-06-11T12:01:39.984Z,18.67
2023-06-11T12:04:10.382Z,13.93
2023-06-11T12:06:40.917Z,13.32
2023-06-11T12:09:11.324Z,12.20
2023-06-11T12:11:56.030Z,12.73
2023-06-11T12:14:31.516Z,11.50
2023-06-11T12:17:02.455Z,11.07
2023-06-11T12:19:35.404Z,10.80
2023-06-11T12:22:13.339Z,9.55
2023-06-11T12:24:43.592Z,8.88
2023-06-11T12:27:15.368Z,12.18
2023-06-11T12:29:45.755Z,9.98
2023-06-11T12:32:16.639Z,10.02
2023-06-11T12:34:47.469Z,9.63
2023-06-11T12:37:18.860Z,9.93
2023-06-11T12:39:49.510Z,9.77
2023-06-11T12:42:22.995Z,10.45
2023-06-11T12:44:53.492Z,10.70
2023-06-11T12:47:23.971Z,10.57
2023-06-11T12:49:54.929Z,11.20
2023-06-11T12:52:25.442Z,12.80
2023-06-11T12:54:56.723Z,11.82
2023-06-11T12:57:27.019Z,12.63
2023-06-11T12:59:57.580Z,15.32
2023-06-11T13:02:28.540Z,15.05
2023-06-11T13:04:59.367Z,19.13
2023-06-11T13:07:29.889Z,14.57
2023-06-11T13:10:00.498Z,16.85
2023-06-11T13:12:31.198Z,19.73
2023-06-11T13:15:03.492Z,18.45
2023-06-11T13:17:34.096Z,15.35
2023-06-11T13:20:07.122Z,15.23
2023-06-11T13:22:37.467Z,13.35
2023-06-11T13:25:09.044Z,12.88
2023-06-11T13:27:39.694Z,12.30
2023-06-11T13:30:15.073Z,12.23
2023-06-11T13:32:57.695Z,12.80
2023-06-11T13:35:28.011Z,11.88
2023-06-11T13:37:58.916Z,13.95
2023-06-11T13:40:28.968Z,12.77
2023-06-11T13:42:59.766Z,13.40
2023-06-11T13:45:30.929Z,12.40
2023-06-11T13:48:21.474Z,13.15
2023-06-11T13:50:53.402Z,12.88
2023-06-11T13:53:25.539Z,12.25
2023-06-11T13:55:56.224Z,12.48
2023-06-11T13:58:27.660Z,12.98
2023-06-11T14:00:58.006Z,10.90
2023-06-11T14:03:28.656Z,11.15
2023-06-11T14:05:59.589Z,11.70
2023-06-11T14:08:30.094Z,11.23
2023-06-11T14:11:00.645Z,10.57
2023-06-11T14:13:31.566Z,10.68
2023-06-11T14:16:02.014Z,11.10
2023-06-11T14:18:32.514Z,9.68
2023-06-11T14:21:02.860Z,9.45
2023-06-11T14:23:33.248Z,8.63
2023-06-11T14:26:03.552Z,7.90
2023-06-11T14:28:34.103Z,8.38
2023-06-11T14:31:07.125Z,8.70
2023-06-11T14:33:37.394Z,8.32
2023-06-11T14:36:08.635Z,8.70
2023-06-11T14:38:38.724Z,8.30
2023-06-11T14:41:09.031Z,8.20
2023-06-11T14:43:39.141Z,7.80
2023-06-11T14:46:09.651Z,7.55
2023-06-11T14:48:40.417Z,7.13
2023-06-11T14:51:11.068Z,7.60
2023-06-11T14:53:41.292Z,6.90
2023-06-11T14:56:11.812Z,7.38
2023-06-11T14:58:44.556Z,8.10
2023-06-11T15:01:14.765Z,7.25
2023-06-11T15:03:45.161Z,8.35
2023-06-11T15:06:15.816Z,8.82
2023-06-11T15:08:47.111Z,7.93
2023-06-11T15:11:17.961Z,7.95
2023-06-11T15:13:48.335Z,7.70
2023-06-11T15:16:18.756Z,7.28
2023-06-11T15:18:49.245Z,7.18
2023-06-11T15:21:19.491Z,7.00
2023-06-11T15:23:49.344Z,7.07
2023-06-11T15:26:20.033Z,7.45
2023-06-11T15:28:51.272Z,11.50
2023-06-11T15:31:21.519Z,10.10
2023-06-11T15:33:51.812Z,9.15
2023-06-11T15:36:23.082Z,8.35
2023-06-11T15:38:56.603Z,8.10
2023-06-11T15:41:27.709Z,8.98
2023-06-11T15:44:04.253Z,9.18
2023-06-11T15:46:35.175Z,8.60
2023-06-11T15:49:05.189Z,8.25
2023-06-11T15:51:35.269Z,8.75
2023-06-11T15:54:06.100Z,8.70
2023-06-11T15:56:40.118Z,9.25
2023-06-11T15:59:10.885Z,9.43
2023-06-11T16:01:41.282Z,9.45
2023-06-11T16:04:12.645Z,9.52
2023-06-11T16:06:43.213Z,9.50
2023-06-11T16:09:13.201Z,9.82
2023-06-11T16:11:47.085Z,9.32
2023-06-11T16:14:17.240Z,9.90
2023-06-11T16:16:48.127Z,10.02
2023-06-11T16:19:21.589Z,10.23
2023-06-11T16:21:52.112Z,9.60
2023-06-11T16:24:22.574Z,11.60
2023-06-11T16:26:53.185Z,11.07
2023-06-11T16:29:25.242Z,11.10
2023-06-11T16:31:57.815Z,10.68
2023-06-11T16:34:28.041Z,10.98
2023-06-11T16:36:58.558Z,11.65
2023-06-11T16:39:29.992Z,12.38
2023-06-11T16:42:00.788Z,11.43
2023-06-11T16:44:31.603Z,11.15
2023-06-11T16:47:02.277Z,12.93
2023-06-11T16:49:32.323Z,13.63
2023-06-11T16:52:05.641Z,12.77
2023-06-11T16:54:36.634Z,12.70
2023-06-11T16:57:07.246Z,12.75
2023-06-11T16:59:37.720Z,13.10
2023-06-11T17:02:08.497Z,12.60
2023-06-11T17:04:39.189Z,12.70
2023-06-11T17:07:09.747Z,12.82
2023-06-11T17:09:40.802Z,12.85
2023-06-11T17:12:11.315Z,11.10
2023-06-11T17:14:42.579Z,11.52
2023-06-11T17:17:13.344Z,12.07
2023-06-11T17:19:47.292Z,12.30
2023-06-11T17:22:17.795Z,11.35
2023-06-11T17:24:50.268Z,11.43
2023-06-11T17:27:21.429Z,11.45
2023-06-11T17:29:55.440Z,11.57
2023-06-11T17:32:25.599Z,11.02
2023-06-11T17:34:58.374Z,11.80
2023-06-11T17:37:28.773Z,11.23
2023-06-11T17:39:59.817Z,11.05
2023-06-11T17:42:30.296Z,10.88
2023-06-11T17:45:00.351Z,9.85
2023-06-11T17:47:31.393Z,9.65
2023-06-11T17:50:01.582Z,10.85
2023-06-11T17:52:32.241Z,10.82
2023-06-11T17:55:02.359Z,10.43
2023-06-11T17:57:32.994Z,12.20
2023-06-11T18:00:04.010Z,11.80
2023-06-11T18:02:34.826Z,10.88
2023-06-11T18:05:05.633Z,11.63
2023-06-11T18:07:37.220Z,10.43
2023-06-11T18:10:07.930Z,10.95
2023-06-11T18:12:38.256Z,11.40
2023-06-11T18:15:26.783Z,11.32
2023-06-11T18:17:59.144Z,9.82
2023-06-11T18:20:30.996Z,9.57
2023-06-11T18:23:01.517Z,9.95
2023-06-11T18:25:32.078Z,9.45
2023-06-11T18:28:04.708Z,9.20
2023-06-11T18:30:34.835Z,9.07
2023-06-11T18:33:05.582Z,9.68
2023-06-11T18:35:36.254Z,8.80
2023-06-11T18:38:07.244Z,8.55
2023-06-11T18:40:40.584Z,8.70
2023-06-11T18:43:10.937Z,9.20
2023-06-11T18:45:41.380Z,9.23
2023-06-11T18:48:12.412Z,9.30
2023-06-11T18:50:43.613Z,9.55
2023-06-11T18:53:14.695Z,9.80
2023-06-11T18:55:44.837Z,9.15
2023-06-11T18:58:17.385Z,9.38
2023-06-11T19:00:48.448Z,9.70
2023-06-11T19:03:18.978Z,8.68
2023-06-11T19:05:51.576Z,9.35
2023-06-11T19:08:21.643Z,9.43
2023-06-11T19:10:52.449Z,9.73
2023-06-11T19:13:22.909Z,9.15
2023-06-11T19:15:53.218Z,9.80
2023-06-11T19:18:25.332Z,10.00
2023-06-11T19:20:55.856Z,10.57
2023-06-11T19:23:26.717Z,9.90
2023-06-11T19:26:01.377Z,10.15
2023-06-11T19:28:31.961Z,10.00
2023-06-11T19:31:02.417Z,9.90
2023-06-11T19:33:35.917Z,10.10
2023-06-11T19:36:07.009Z,10.20
2023-06-11T19:38:39.945Z,10.55
2023-06-11T19:41:12.503Z,9.65
2023-06-11T19:43:45.315Z,10.73
2023-06-11T19:46:15.509Z,10.77
2023-06-11T19:48:45.588Z,11.48
2023-06-11T19:51:18.862Z,15.32
2023-06-11T19:53:53.760Z,14.85
2023-06-11T19:56:24.321Z,13.90
2023-06-11T19:58:57.877Z,14.38
2023-06-11T20:01:28.876Z,15.75
2023-06-11T20:03:59.430Z,15.50
2023-06-11T20:06:30.925Z,14.07
2023-06-11T20:09:05.384Z,15.55
2023-06-11T20:11:38.980Z,16.70
2023-06-11T20:14:09.496Z,16.98
2023-06-11T20:16:40.187Z,18.85
2023-06-11T20:19:12.543Z,19.05
2023-06-11T20:21:43.404Z,11.23
2023-06-11T20:24:13.969Z,8.05
2023-06-11T20:26:45.464Z,4.53
2023-06-11T20:29:16.165Z,4.57
2023-06-11T20:31:46.700Z,4.10
2023-06-11T20:34:17.468Z,4.82
2023-06-11T20:36:47.958Z,4.40
2023-06-11T20:39:18.574Z,4.80
2023-06-11T20:41:49.664Z,4.20
2023-06-11T20:44:20.333Z,4.72
2023-06-11T20:46:51.506Z,5.28
2023-06-11T20:49:22.014Z,5.22
2023-06-11T20:51:52.911Z,5.68
2023-06-11T20:54:23.721Z,4.72
2023-06-11T20:56:55.745Z,5.32
2023-06-11T20:59:29.666Z,5.50
2023-06-11T21:02:03.515Z,5.43
2023-06-11T21:04:34.900Z,5.45
2023-06-11T21:07:08.215Z,5.18
2023-06-11T21:09:38.421Z,3.90
2023-06-11T21:12:08.960Z,3.63
2023-06-11T21:14:39.521Z,4.20
2023-06-11T21:17:09.949Z,4.80
2023-06-11T21:19:40.479Z,4.88
2023-06-11T21:22:14.548Z,5.15
2023-06-11T21:24:44.874Z,5.70
2023-06-11T21:27:15.524Z,4.93
2023-06-11T21:29:46.041Z,5.65
2023-06-11T21:32:16.472Z,5.00
2023-06-11T21:34:47.014Z,5.80
2023-06-11T21:37:17.301Z,4.45
2023-06-11T21:39:48.126Z,4.43
2023-06-11T21:42:21.496Z,4.40
2023-06-11T21:44:52.147Z,4.25
2023-06-11T21:47:22.631Z,4.35
2023-06-11T21:49:53.452Z,4.00
2023-06-11T21:52:24.023Z,4.53
2023-06-11T21:54:54.558Z,4.22
2023-06-11T21:57:24.456Z,7.05
2023-06-11T21:59:57.136Z,21.42
2023-06-11T22:02:28.571Z,15.38
2023-06-11T22:04:58.937Z,11.50
2023-06-11T22:07:29.983Z,9.23
2023-06-11T22:10:00.516Z,6.63
2023-06-11T22:12:31.261Z,5.50
2023-06-11T22:15:03.567Z,5.80
2023-06-11T22:17:37.022Z,5.30
2023-06-11T22:20:12.115Z,6.43
2023-06-11T22:22:43.611Z,5.80
2023-06-11T22:25:15.055Z,5.75
2023-06-11T22:27:46.164Z,5.00
2023-06-11T22:30:17.209Z,5.78
2023-06-11T22:32:47.602Z,5.28
2023-06-11T22:35:19.064Z,5.40
2023-06-11T22:37:49.631Z,5.85
2023-06-11T22:40:22.206Z,5.07
2023-06-11T22:42:55.913Z,5.60
2023-06-11T22:45:26.121Z,6.43
2023-06-11T22:47:57.371Z,6.10
2023-06-11T22:50:27.591Z,6.30
2023-06-11T22:52:58.561Z,7.30
2023-06-11T22:55:28.925Z,6.93
2023-06-11T22:57:59.433Z,7.95
2023-06-11T23:00:29.599Z,8.40
2023-06-11T23:03:00.006Z,9.07
2023-06-11T23:05:32.530Z,9.35
2023-06-11T23:08:02.594Z,8.77
2023-06-11T23:10:32.501Z,8.85
2023-06-11T23:13:02.405Z,8.27
2023-06-11T23:15:32.890Z,9.98
2023-06-11T23:18:07.304Z,9.70
2023-06-11T23:20:38.809Z,9.25
2023-06-11T23:23:11.447Z,11.25
2023-06-11T23:25:41.612Z,9.80
2023-06-11T23:28:14.568Z,9.50
2023-06-11T23:30:45.030Z,9.05
2023-06-11T23:33:15.092Z,10.20
2023-06-11T23:35:45.543Z,11.57
2023-06-11T23:38:15.666Z,11.43
2023-06-11T23:40:45.574Z,11.48
2023-06-11T23:43:15.604Z,11.73
2023-06-11T23:45:46.381Z,10.88
2023-06-11T23:48:16.913Z,10.40
2023-06-11T23:50:49.390Z,11.20
2023-06-11T23:53:22.592Z,11.20
2023-06-11T23:55:53.230Z,11.75
2023-06-11T23:58:23.617Z,12.10
